createdAt,value
2023-12-03T00:03:53.685Z,964.93
2023-12-03T00:08:55.122Z,964.92
2023-12-03T00:13:56.690Z,964.9
2023-12-03T00:18:58.725Z,964.94
2023-12-03T00:24:00.519Z,964.98
2023-12-03T00:29:02.607Z,965.04
2023-12-03T00:34:04.216Z,965.09
2023-12-03T00:39:05.761Z,965.22
2023-12-03T00:44:07.215Z,965.3
2023-12-03T00:49:08.674Z,965.45
2023-12-03T00:54:10.135Z,965.48
2023-12-03T00:59:11.884Z,965.54
2023-12-03T01:04:13.405Z,965.57
2023-12-03T01:09:14.597Z,965.73
2023-12-03T01:14:15.962Z,965.75
2023-12-03T01:19:17.891Z,965.87
2023-12-03T01:24:19.909Z,965.85
2023-12-03T01:29:21.458Z,965.94
2023-12-03T01:34:23.368Z,965.89
2023-12-03T01:39:24.635Z,965.92
2023-12-03T01:44:26.545Z,965.94
2023-12-03T01:49:28.801Z,966.01
2023-12-03T01:54:30.764Z,966.05
2023-12-03T01:59:32.149Z,966.15
2023-12-03T02:04:33.567Z,966.11
2023-12-03T02:09:35.039Z,966.13
2023-12-03T02:14:36.368Z,966.13
2023-12-03T02:19:38.127Z,966.24
2023-12-03T02:24:39.325Z,966.27
2023-12-03T02:29:40.757Z,966.25
2023-12-03T02:34:42.692Z,966.29
2023-12-03T02:39:44.225Z,966.3
2023-12-03T02:44:45.764Z,966.27
2023-12-03T02:49:47.186Z,966.26
2023-12-03T02:54:49.257Z,966.38
2023-12-03T02:59:50.570Z,966.44
2023-12-03T03:04:51.793Z,966.42
2023-12-03T03:09:53.659Z,966.47
2023-12-03T03:14:54.893Z,966.55
2023-12-03T03:19:56.192Z,966.55
2023-12-03T03:24:57.449Z,966.62
2023-12-03T03:29:59.571Z,966.61
2023-12-03T03:35:01.091Z,966.7
2023-12-03T03:40:02.713Z,966.65
2023-12-03T03:45:04.458Z,966.6
2023-12-03T03:50:06.357Z,966.61
2023-12-03T03:55:07.672Z,966.64
2023-12-03T04:00:09.500Z,966.72
2023-12-03T04:05:11.342Z,966.81
2023-12-03T04:10:13.223Z,966.88
2023-12-03T04:15:14.763Z,966.85
2023-12-03T04:20:16.785Z,966.91
2023-12-03T04:25:18.764Z,966.96
2023-12-03T04:30:20.018Z,967
2023-12-03T04:35:22.000Z,966.99
2023-12-03T04:40:23.778Z,967.04
2023-12-03T04:45:25.713Z,967.02
2023-12-03T04:50:27.403Z,967.12
2023-12-03T04:55:28.930Z,967.16
2023-12-03T05:00:36.575Z,967.26
2023-12-03T05:05:38.684Z,967.29
2023-12-03T05:10:40.062Z,967.33
2023-12-03T05:15:41.637Z,967.38
2023-12-03T05:20:43.618Z,967.38
2023-12-03T05:25:44.984Z,967.42
2023-12-03T05:30:46.647Z,967.37
2023-12-03T05:35:48.195Z,967.47
2023-12-03T05:40:49.677Z,967.55
2023-12-03T05:45:50.904Z,967.63
2023-12-03T05:50:52.856Z,967.67
2023-12-03T05:55:54.770Z,967.67
2023-12-03T06:00:56.197Z,967.71
2023-12-03T06:05:57.976Z,967.72
2023-12-03T06:11:00.094Z,967.7
2023-12-03T06:16:02.002Z,967.79
2023-12-03T06:21:04.160Z,967.83
2023-12-03T06:26:05.470Z,967.87
2023-12-03T06:31:06.994Z,967.84
2023-12-03T06:36:08.255Z,967.94
2023-12-03T06:41:10.043Z,967.99
2023-12-03T06:46:12.116Z,967.98
2023-12-03T06:51:14.153Z,968.06
2023-12-03T06:56:15.890Z,968.16
2023-12-03T07:01:17.776Z,968.24
2023-12-03T07:06:19.105Z,968.27
2023-12-03T07:11:20.503Z,968.28
2023-12-03T07:16:22.543Z,968.24
2023-12-03T07:21:24.665Z,968.33
2023-12-03T07:26:26.316Z,968.35
2023-12-03T07:31:28.230Z,968.49
2023-12-03T07:36:29.867Z,968.59
2023-12-03T07:41:32.035Z,968.59
2023-12-03T07:46:34.167Z,968.61
2023-12-03T07:51:36.164Z,968.63
2023-12-03T07:56:37.887Z,968.59
2023-12-03T08:01:39.276Z,968.58
2023-12-03T08:06:41.071Z,968.65
2023-12-03T08:11:42.909Z,968.68
2023-12-03T08:16:44.430Z,968.68
2023-12-03T08:21:46.542Z,968.66
2023-12-03T08:26:48.163Z,968.6
2023-12-03T08:31:49.608Z,968.54
2023-12-03T08:36:51.358Z,968.58
2023-12-03T08:41:53.224Z,968.62
2023-12-03T08:46:54.608Z,968.69
2023-12-03T08:51:56.657Z,968.8
2023-12-03T08:56:58.094Z,968.79
2023-12-03T09:01:59.720Z,968.8
2023-12-03T09:07:01.433Z,968.79
2023-12-03T09:12:02.907Z,968.8
2023-12-03T09:17:05.053Z,968.67
2023-12-03T09:22:06.909Z,968.73
2023-12-03T09:27:08.918Z,968.8
2023-12-03T09:32:10.846Z,968.81
2023-12-03T09:37:13.028Z,968.85
2023-12-03T09:42:14.620Z,968.85
2023-12-03T09:47:16.120Z,968.76
2023-12-03T09:52:17.451Z,968.76
2023-12-03T09:57:18.764Z,968.72
2023-12-03T10:02:20.802Z,968.66
2023-12-03T10:07:21.995Z,968.6
2023-12-03T10:12:24.119Z,968.56
2023-12-03T10:17:26.025Z,968.5
2023-12-03T10:22:27.321Z,968.41
2023-12-03T10:27:28.751Z,968.5
2023-12-03T10:32:30.866Z,968.57
2023-12-03T10:37:32.952Z,968.54
2023-12-03T10:42:34.794Z,968.53
2023-12-03T10:47:36.940Z,968.55
2023-12-03T10:52:39.097Z,968.58
2023-12-03T11:02:43.072Z,968.68
2023-12-03T11:22:49.378Z,968.82
2023-12-03T11:58:00.327Z,968.78
2023-12-03T12:03:02.089Z,968.8
2023-12-03T12:28:09.486Z,968.6
2023-12-03T12:38:12.641Z,968.53
2023-12-03T13:33:32.567Z,968.4
2023-12-03T14:03:42.674Z,968.43
2023-12-03T14:08:43.577Z,968.51
2023-12-03T14:13:45.329Z,968.49
2023-12-03T14:18:47.314Z,968.55
2023-12-03T14:23:49.262Z,968.62
2023-12-03T14:28:50.749Z,968.51
2023-12-03T14:33:52.888Z,968.5
2023-12-03T14:38:54.256Z,968.53
2023-12-03T14:43:55.792Z,968.54
2023-12-03T14:48:57.399Z,968.6
2023-12-03T14:53:59.496Z,968.57
2023-12-03T14:59:01.089Z,968.58
2023-12-03T15:04:02.653Z,968.58
2023-12-03T15:09:03.888Z,968.62
2023-12-03T15:14:05.342Z,968.67
2023-12-03T15:19:07.485Z,968.68
2023-12-03T15:24:08.877Z,968.63
2023-12-03T15:29:10.759Z,968.67
2023-12-03T15:34:12.258Z,968.58
2023-12-03T15:39:14.186Z,968.59
2023-12-03T15:44:15.699Z,968.65
2023-12-03T15:49:19.702Z,968.66
2023-12-03T15:54:19.928Z,968.69
2023-12-03T15:59:21.615Z,968.77
2023-12-03T16:04:23.782Z,968.77
2023-12-03T16:09:25.158Z,968.74
2023-12-03T16:14:27.216Z,968.7
2023-12-03T16:19:29.358Z,968.69
2023-12-03T16:24:31.003Z,968.68
2023-12-03T16:29:32.360Z,968.64
2023-12-03T16:34:34.553Z,968.68
2023-12-03T16:39:35.719Z,968.74
2023-12-03T16:44:37.805Z,968.73
2023-12-03T16:49:39.249Z,968.72
2023-12-03T16:54:40.516Z,968.74
2023-12-03T16:59:42.552Z,968.75
2023-12-03T17:04:44.096Z,968.76
2023-12-03T17:09:45.863Z,968.78
2023-12-03T17:14:47.878Z,968.82
2023-12-03T17:19:49.888Z,968.83
2023-12-03T17:24:51.881Z,968.8
2023-12-03T17:29:53.742Z,968.77
2023-12-03T17:34:55.540Z,968.78
2023-12-03T17:39:57.045Z,968.8
2023-12-03T17:44:58.858Z,968.84
2023-12-03T17:50:00.535Z,968.77
2023-12-03T17:55:02.332Z,968.78
2023-12-03T18:00:04.048Z,968.73
2023-12-03T18:05:05.348Z,968.72
2023-12-03T18:10:07.185Z,968.77
2023-12-03T18:15:09.381Z,968.82
2023-12-03T18:20:10.867Z,968.8
2023-12-03T18:25:12.220Z,968.73
2023-12-03T18:30:14.098Z,968.71
2023-12-03T18:35:16.170Z,968.63
2023-12-03T18:40:18.090Z,968.65
2023-12-03T18:45:19.895Z,968.7
2023-12-03T18:50:21.801Z,968.65
2023-12-03T18:55:23.084Z,968.71
2023-12-03T19:00:24.735Z,968.73
2023-12-03T19:05:26.142Z,968.76
2023-12-03T19:10:28.004Z,968.78
2023-12-03T19:15:30.346Z,968.8
2023-12-03T19:20:31.549Z,968.8
2023-12-03T19:25:33.264Z,968.72
2023-12-03T19:30:34.936Z,968.63
2023-12-03T19:35:36.204Z,968.56
2023-12-03T19:40:37.650Z,968.52
2023-12-03T19:45:39.595Z,968.47
2023-12-03T19:50:40.865Z,968.5
2023-12-03T19:55:42.156Z,968.5
2023-12-03T20:00:43.678Z,968.43
2023-12-03T20:05:45.118Z,968.43
2023-12-03T20:10:46.625Z,968.3
2023-12-03T20:15:48.715Z,968.3
2023-12-03T20:20:50.883Z,968.27
2023-12-03T20:25:52.297Z,968.16
2023-12-03T20:30:53.984Z,968.16
2023-12-03T20:35:55.491Z,968.19
2023-12-03T20:40:56.971Z,968.11
2023-12-03T20:45:58.716Z,968.05
2023-12-03T20:51:00.109Z,968
2023-12-03T20:56:01.768Z,967.87
2023-12-03T21:01:03.537Z,967.78
2023-12-03T21:06:05.398Z,967.75
2023-12-03T21:11:07.180Z,967.67
2023-12-03T21:16:08.753Z,967.62
2023-12-03T21:21:10.534Z,967.53
2023-12-03T21:26:12.370Z,967.33
2023-12-03T21:31:14.021Z,967.19
2023-12-03T21:36:15.637Z,967.15
2023-12-03T21:41:17.235Z,967.1
2023-12-03T21:41:23.617Z,967.05
2023-12-03T21:46:25.428Z,967.03
2023-12-03T21:51:27.225Z,967.03
2023-12-03T21:56:28.801Z,967.03
2023-12-03T22:01:30.009Z,966.9
2023-12-03T22:06:32.031Z,966.79
2023-12-03T22:11:33.871Z,966.87
2023-12-03T22:16:35.778Z,966.88
2023-12-03T22:21:37.656Z,966.82
2023-12-03T22:26:39.744Z,966.76
2023-12-03T22:31:41.112Z,966.59
2023-12-03T22:36:42.462Z,966.53
2023-12-03T22:41:43.932Z,966.43
2023-12-03T22:46:45.486Z,966.54
2023-12-03T22:51:46.747Z,966.52
2023-12-03T22:56:48.588Z,966.4
2023-12-03T23:01:51.464Z,966.35
2023-12-03T23:06:51.734Z,966.28
2023-12-03T23:11:53.422Z,966.1
2023-12-03T23:16:55.456Z,966.05
2023-12-03T23:21:57.004Z,965.98
2023-12-03T23:27:02.567Z,965.91
2023-12-03T23:32:00.286Z,965.82
2023-12-03T23:37:01.655Z,965.79
2023-12-03T23:42:03.453Z,965.69
2023-12-03T23:47:05.063Z,965.68
2023-12-03T23:52:06.820Z,965.58
2023-12-03T23:57:08.452Z,965.48
